Chville, Virginia
Current Conditions -  °F | °C
As of 2:31 PM on Tuesday 21 Oct 2014 (Local Time) from KCHO Reporting Station
Broken Clouds Broken Clouds  
Wind Chill: 72°   Ceiling: 6000
Heat Index: 72°   Visibility: 10mi
Dew Point: 44°   Wind: 7mph
Humidity: 37%   Direction: NA
Pressure: 29.8"   Gusts: NA
Location:  38.0464°N, 78.4686°W
Report Text: KCHO 211831Z VRB06KT 10SM BKN060 BKN100 22/07 A2980 RMK AO2 WSHFT 1811 T02220067
Loading
Personal Weather Stations






























Interactive Weather Map
Tropical Storm Tracking
New forecast layout! Learn more

10-Day Weather Forecast

Advertisements
Track Severe Weather on mobile